首页
METAR-TAF:

METAR-TAF

机场 :

夏洛特道格拉斯國際機場

夏洛特, 北卡罗来纳州, 美国

纬度: 35-12-48N, 经度: 080-56-55W, 海拔: 228米

当前天气观测

该预报发布于43分钟前的18:52 UTC
风速9节,风向西转西南
温度 29°C
湿度 62%
气压 1024 hPa
能見度: 14.5公里
散云层高于2800英尺
散云层高于12000英尺
多云层高于25000英尺

METAR: KCLT 231852Z 24009KT 9SM SCT028 SCT120 BKN250 29/21 A3023 RMK AO2 PK WND 22027/1802 SLP227 T02940211

时间: 15:35 (19:35 UTC)

预报

该预报发布于2小时和12分钟前的17:23 UTC
预报有效从23日的 18点(UTC)到 24日的 24点(UTC)
风速10节,风向西南
能見度: 10公里
散云层高于5000英尺
多云层高于20000英尺
附近有阵雨
从 23日的 2300点(UTC)
风速5节,风向西南
能見度: 10公里
少量云层高于5000英尺
散云层高于20000英尺
从 24日的 1300点(UTC)
风速6节,风向西
能見度: 10公里
少量云层高于25000英尺
从 24日的 1700点(UTC)
风速8节,风向西转西北
能見度: 10公里
少量云层高于5000英尺

TAF: KCLT 231723Z 2318/2424 23010KT P6SM VCSH SCT050 BKN200 FM232300 23005KT P6SM FEW050 SCT200 FM241300 26006KT P6SM FEW250 FM241700 29008KT P6SM FEW050

超过4000个机场的气象观测和天气预报(METAR&TAF报告)。

可查询的气象台以黄色和红色小点在地图上表示。

将鼠标移到小点上方,可查看气象台名称。

然后点击查看天气观测和预报。

如需切换地图:点击带黑十字的绿色按钮放大地图;点击带横线的绿色按钮缩小地图;或者点击绿色箭头查看邻近地区的地图。


METAR-TAF: